createdAt,value
2023-05-19T00:01:20.460Z,13.60
2023-05-19T00:03:55.198Z,16.50
2023-05-19T00:06:34.409Z,16.10
2023-05-19T00:09:07.269Z,13.75
2023-05-19T00:11:38.365Z,13.45
2023-05-19T00:14:07.498Z,15.02
2023-05-19T00:16:35.095Z,13.52
2023-05-19T00:19:04.251Z,16.90
2023-05-19T00:21:31.846Z,15.55
2023-05-19T00:23:59.101Z,12.97
2023-05-19T00:26:28.415Z,12.35
2023-05-19T00:28:55.238Z,14.63
2023-05-19T00:31:22.106Z,14.23
2023-05-19T00:33:48.901Z,12.10
2023-05-19T00:36:15.801Z,13.13
2023-05-19T00:38:42.523Z,15.60
2023-05-19T00:41:11.962Z,16.10
2023-05-19T00:43:38.722Z,12.63
2023-05-19T00:46:05.635Z,14.65
2023-05-19T00:48:32.363Z,15.87
2023-05-19T00:51:04.719Z,14.15
2023-05-19T00:53:35.624Z,13.88
2023-05-19T00:56:05.919Z,14.38
2023-05-19T00:58:33.727Z,15.75
2023-05-19T01:01:05.326Z,13.50
2023-05-19T01:03:35.149Z,12.82
2023-05-19T01:06:06.220Z,13.45
2023-05-19T01:08:34.358Z,11.52
2023-05-19T01:11:01.465Z,13.73
2023-05-19T01:13:29.088Z,14.63
2023-05-19T01:16:06.944Z,14.73
2023-05-19T01:18:42.935Z,14.30
2023-05-19T01:21:17.787Z,17.58
2023-05-19T01:23:57.068Z,14.73
2023-05-19T01:26:52.307Z,18.27
2023-05-19T01:29:40.295Z,13.93
2023-05-19T01:32:09.471Z,16.55
2023-05-19T01:34:42.137Z,13.05
2023-05-19T01:37:09.795Z,13.98
2023-05-19T01:39:37.427Z,13.83
2023-05-19T01:42:04.879Z,15.15
2023-05-19T01:44:33.091Z,18.13
2023-05-19T01:47:00.918Z,15.93
2023-05-19T01:49:27.754Z,14.25
2023-05-19T01:51:54.693Z,13.47
2023-05-19T01:54:21.613Z,14.10
2023-05-19T01:57:23.152Z,14.60
2023-05-19T02:00:12.317Z,16.08
2023-05-19T02:02:50.112Z,13.90
2023-05-19T02:05:29.530Z,13.65
2023-05-19T02:08:06.556Z,14.63
2023-05-19T02:10:40.098Z,14.35
2023-05-19T02:13:09.347Z,15.73
2023-05-19T02:15:42.154Z,13.10
2023-05-19T02:18:11.731Z,13.63
2023-05-19T02:20:39.744Z,14.07
2023-05-19T02:23:06.852Z,13.43
2023-05-19T02:25:36.872Z,15.77
2023-05-19T02:28:03.639Z,14.45
2023-05-19T02:30:32.139Z,14.23
2023-05-19T02:32:59.622Z,15.38
2023-05-19T02:35:29.530Z,16.48
2023-05-19T02:37:59.769Z,15.27
2023-05-19T02:40:26.516Z,17.65
2023-05-19T02:42:53.250Z,14.37
2023-05-19T02:45:20.059Z,15.82
2023-05-19T02:47:46.902Z,15.75
2023-05-19T02:50:13.697Z,14.95
2023-05-19T02:52:40.578Z,19.85
2023-05-19T02:55:10.007Z,16.90
2023-05-19T02:57:36.714Z,16.80
2023-05-19T03:00:03.866Z,16.50
2023-05-19T03:02:30.846Z,14.68
2023-05-19T03:04:57.971Z,18.77
2023-05-19T03:07:25.119Z,15.63
2023-05-19T03:09:52.643Z,15.40
2023-05-19T03:12:19.444Z,14.48
2023-05-19T03:14:46.500Z,14.65
2023-05-19T03:17:13.419Z,12.80
2023-05-19T03:19:40.234Z,17.47
2023-05-19T03:22:07.136Z,17.65
2023-05-19T03:24:33.949Z,14.45
2023-05-19T03:27:00.821Z,12.55
2023-05-19T03:29:27.577Z,16.60
2023-05-19T03:31:54.465Z,18.67
2023-05-19T03:34:23.581Z,18.55
2023-05-19T03:36:50.567Z,16.58
2023-05-19T03:39:17.347Z,20.25
2023-05-19T03:41:46.894Z,14.82
2023-05-19T03:44:13.634Z,17.03
2023-05-19T03:46:40.469Z,15.60
2023-05-19T03:49:07.578Z,16.98
2023-05-19T03:51:35.013Z,18.25
2023-05-19T03:54:02.172Z,15.82
2023-05-19T03:56:29.014Z,17.20
2023-05-19T03:58:56.010Z,17.08
2023-05-19T04:01:22.794Z,19.63
2023-05-19T04:03:49.607Z,14.43
2023-05-19T04:06:17.663Z,20.40
2023-05-19T04:08:44.577Z,13.67
2023-05-19T04:11:11.612Z,14.60
2023-05-19T04:13:39.487Z,15.60
2023-05-19T04:16:07.066Z,14.02
2023-05-19T04:18:33.881Z,15.23
2023-05-19T04:21:00.669Z,17.73
2023-05-19T04:23:27.408Z,16.17
2023-05-19T04:25:54.738Z,16.67
2023-05-19T04:28:21.781Z,18.08
2023-05-19T04:30:48.627Z,18.23
2023-05-19T04:33:15.470Z,13.87
2023-05-19T04:35:43.992Z,14.95
2023-05-19T04:38:12.108Z,16.92
2023-05-19T04:40:40.470Z,16.33
2023-05-19T04:43:07.480Z,16.77
2023-05-19T04:45:37.803Z,14.73
2023-05-19T04:48:05.239Z,18.50
2023-05-19T04:50:32.672Z,20.75
2023-05-19T04:52:59.658Z,18.00
2023-05-19T04:55:28.975Z,18.98
2023-05-19T04:57:55.750Z,20.57
2023-05-19T05:00:26.098Z,20.52
2023-05-19T05:02:55.270Z,21.40
2023-05-19T05:05:22.076Z,17.40
2023-05-19T05:07:49.587Z,17.77
2023-05-19T05:10:16.438Z,22.67
2023-05-19T05:12:43.483Z,16.98
2023-05-19T05:15:10.915Z,19.52
2023-05-19T05:17:38.013Z,16.48
2023-05-19T05:20:06.709Z,20.17
2023-05-19T05:22:34.173Z,19.07
2023-05-19T05:25:04.134Z,19.60
2023-05-19T05:27:31.569Z,19.95
2023-05-19T05:29:59.520Z,17.67
2023-05-19T05:32:28.758Z,23.77
2023-05-19T05:34:55.642Z,20.20
2023-05-19T05:37:23.064Z,19.42
2023-05-19T05:39:49.765Z,21.90
2023-05-19T05:42:16.564Z,21.77
2023-05-19T05:44:43.400Z,20.45
2023-05-19T05:47:12.074Z,21.83
2023-05-19T05:49:40.384Z,21.75
2023-05-19T05:52:09.322Z,20.38
2023-05-19T05:54:38.787Z,20.80
2023-05-19T05:57:08.788Z,21.55
2023-05-19T05:59:35.607Z,21.20
2023-05-19T06:02:02.734Z,25.33
2023-05-19T06:04:32.375Z,23.25
2023-05-19T06:07:01.694Z,23.42
2023-05-19T06:09:30.164Z,21.75
2023-05-19T06:11:59.245Z,21.03
2023-05-19T06:14:26.296Z,19.73
2023-05-19T06:16:53.297Z,20.33
2023-05-19T06:19:20.367Z,23.92
2023-05-19T06:21:47.255Z,14.65
2023-05-19T06:24:14.009Z,20.13
2023-05-19T06:26:40.782Z,25.15
2023-05-19T06:29:07.572Z,22.05
2023-05-19T06:31:34.479Z,22.95
2023-05-19T06:34:01.288Z,20.25
2023-05-19T06:36:28.140Z,23.27
2023-05-19T06:38:54.925Z,25.58
2023-05-19T06:41:23.066Z,21.30
2023-05-19T06:43:49.934Z,22.80
2023-05-19T06:46:18.024Z,25.40
2023-05-19T06:48:44.851Z,23.00
2023-05-19T06:51:11.715Z,24.30
2023-05-19T06:53:38.433Z,23.95
2023-05-19T06:56:08.283Z,26.92
2023-05-19T06:58:35.062Z,20.95
2023-05-19T07:01:01.875Z,18.97
2023-05-19T07:03:29.853Z,18.88
2023-05-19T07:05:57.993Z,23.73
2023-05-19T07:08:24.773Z,19.50
2023-05-19T07:10:55.471Z,18.83
2023-05-19T07:13:22.996Z,20.77
2023-05-19T07:15:52.412Z,20.63
2023-05-19T07:18:19.998Z,17.40
2023-05-19T07:20:46.742Z,23.05
2023-05-19T07:23:15.400Z,20.58
2023-05-19T07:25:43.461Z,20.50
2023-05-19T07:28:10.224Z,24.40
2023-05-19T07:30:40.860Z,24.17
2023-05-19T07:33:10.959Z,20.10
2023-05-19T07:35:40.192Z,22.73
2023-05-19T07:38:07.593Z,16.67
2023-05-19T07:40:34.473Z,20.40
2023-05-19T07:43:01.332Z,17.42
2023-05-19T07:45:28.132Z,20.98
2023-05-19T07:47:55.035Z,21.55
2023-05-19T07:50:22.365Z,19.67
2023-05-19T07:52:49.159Z,22.63
2023-05-19T07:55:16.623Z,21.20
2023-05-19T07:57:43.399Z,21.73
2023-05-19T08:00:12.160Z,20.60
2023-05-19T08:02:39.051Z,20.73
2023-05-19T08:05:06.294Z,21.83
2023-05-19T08:07:33.218Z,18.92
2023-05-19T08:09:59.953Z,18.42
2023-05-19T08:12:26.899Z,15.65
2023-05-19T08:14:53.691Z,21.23
2023-05-19T08:17:20.467Z,17.50
2023-05-19T08:19:47.235Z,18.52
2023-05-19T08:22:14.036Z,19.65
2023-05-19T08:24:43.247Z,23.80
2023-05-19T08:27:10.174Z,18.50
2023-05-19T08:29:38.329Z,17.58
2023-05-19T08:32:05.522Z,15.70
2023-05-19T08:34:32.915Z,16.90
2023-05-19T08:36:59.986Z,17.55
2023-05-19T08:39:27.431Z,16.87
2023-05-19T08:41:57.683Z,17.58
2023-05-19T08:44:24.620Z,13.90
2023-05-19T08:46:53.250Z,15.95
2023-05-19T08:49:25.605Z,16.48
2023-05-19T08:52:05.554Z,20.30
2023-05-19T08:55:01.244Z,18.50
2023-05-19T08:57:28.786Z,16.00
2023-05-19T08:59:56.796Z,14.85
2023-05-19T09:02:24.057Z,16.38
2023-05-19T09:04:51.346Z,14.67
2023-05-19T09:07:19.652Z,14.98
2023-05-19T09:09:46.594Z,14.32
2023-05-19T09:12:14.456Z,15.13
2023-05-19T09:14:41.302Z,17.58
2023-05-19T09:17:08.222Z,14.57
2023-05-19T09:19:35.293Z,16.58
2023-05-19T09:22:05.517Z,13.73
2023-05-19T09:24:35.008Z,14.98
2023-05-19T09:27:02.348Z,19.58
2023-05-19T09:29:29.249Z,17.93
2023-05-19T09:32:05.387Z,16.73
2023-05-19T09:34:32.376Z,18.50
2023-05-19T09:37:02.227Z,16.73
2023-05-19T09:39:30.010Z,19.80
2023-05-19T09:41:58.830Z,15.47
2023-05-19T09:44:29.729Z,15.10
2023-05-19T09:46:57.453Z,16.15
2023-05-19T09:49:32.738Z,16.90
2023-05-19T09:52:03.931Z,17.40
2023-05-19T09:54:32.539Z,16.30
2023-05-19T09:57:03.774Z,23.65
2023-05-19T09:59:33.378Z,18.73
2023-05-19T10:02:02.315Z,14.82
2023-05-19T10:04:33.553Z,14.38
2023-05-19T10:07:06.059Z,16.37
2023-05-19T10:09:37.227Z,15.73
2023-05-19T10:12:05.636Z,16.13
2023-05-19T10:14:32.419Z,14.15
2023-05-19T10:16:59.766Z,13.70
2023-05-19T10:19:28.247Z,16.53
2023-05-19T10:21:56.362Z,13.63
2023-05-19T10:24:23.223Z,13.98
2023-05-19T10:27:17.274Z,15.40
2023-05-19T10:29:50.135Z,12.15
2023-05-19T10:32:24.015Z,14.77
2023-05-19T10:35:16.714Z,14.20
2023-05-19T10:38:07.042Z,13.55
2023-05-19T10:40:38.310Z,15.20
2023-05-19T10:43:19.688Z,15.00
2023-05-19T10:45:49.525Z,13.93
2023-05-19T10:48:17.315Z,14.43
2023-05-19T10:50:48.069Z,15.23
2023-05-19T10:53:19.516Z,15.05
2023-05-19T10:56:07.361Z,14.05
2023-05-19T10:58:46.197Z,18.43
2023-05-19T11:01:19.812Z,13.70
2023-05-19T11:03:53.991Z,18.42
2023-05-19T11:06:25.013Z,17.13
2023-05-19T11:09:13.831Z,14.45
2023-05-19T11:11:54.385Z,14.40
2023-05-19T11:14:27.140Z,14.45
2023-05-19T11:17:00.299Z,15.18
2023-05-19T11:19:35.707Z,18.58
2023-05-19T11:22:10.606Z,17.10
2023-05-19T11:24:44.751Z,14.50
2023-05-19T11:27:31.403Z,15.60
2023-05-19T11:30:09.953Z,13.65
2023-05-19T11:32:42.010Z,15.07
2023-05-19T11:35:10.141Z,15.45
2023-05-19T11:37:42.954Z,15.00
2023-05-19T11:40:11.075Z,14.07
2023-05-19T11:42:37.888Z,16.63
2023-05-19T11:45:05.532Z,15.93
2023-05-19T11:47:55.751Z,16.60
2023-05-19T11:50:31.357Z,16.90
2023-05-19T11:53:00.693Z,18.10
2023-05-19T11:55:28.445Z,19.23
2023-05-19T11:58:05.503Z,18.35
2023-05-19T12:00:39.238Z,15.20
2023-05-19T12:03:07.009Z,17.20
2023-05-19T12:05:40.858Z,18.67
2023-05-19T12:08:10.374Z,16.30
2023-05-19T12:10:38.774Z,16.05
2023-05-19T12:13:09.136Z,18.60
2023-05-19T12:15:36.633Z,16.20
2023-05-19T12:18:06.317Z,17.85
2023-05-19T12:20:38.181Z,18.13
2023-05-19T12:23:05.345Z,19.08
2023-05-19T12:25:45.665Z,18.00
2023-05-19T12:28:12.561Z,16.77
2023-05-19T12:30:39.427Z,17.02
2023-05-19T12:33:06.445Z,16.42
2023-05-19T12:35:34.156Z,18.55
2023-05-19T12:38:05.023Z,15.45
2023-05-19T12:40:34.022Z,17.50
2023-05-19T12:43:01.132Z,23.50
2023-05-19T12:45:28.957Z,16.17
2023-05-19T12:47:56.186Z,15.98
2023-05-19T12:50:31.263Z,16.50
2023-05-19T12:53:02.598Z,16.93
2023-05-19T12:55:30.034Z,18.92
2023-05-19T12:57:58.254Z,16.88
2023-05-19T13:00:28.968Z,15.65
2023-05-19T13:03:07.513Z,16.83
2023-05-19T13:05:40.599Z,17.60
2023-05-19T13:08:08.324Z,17.88
2023-05-19T13:10:36.355Z,14.55
2023-05-19T13:13:04.042Z,14.30
2023-05-19T13:15:36.485Z,17.80
2023-05-19T13:18:06.237Z,17.63
2023-05-19T13:20:38.453Z,16.45
2023-05-19T13:23:06.042Z,14.90
2023-05-19T13:25:36.206Z,15.75
2023-05-19T13:28:05.834Z,15.88
2023-05-19T13:30:34.642Z,15.20
2023-05-19T13:33:02.175Z,15.38
2023-05-19T13:35:29.051Z,13.45
2023-05-19T13:37:55.877Z,14.23
2023-05-19T13:40:24.160Z,16.15
2023-05-19T13:42:51.058Z,14.13
2023-05-19T13:45:18.454Z,14.95
2023-05-19T13:47:45.286Z,14.63
2023-05-19T13:50:12.579Z,13.98
2023-05-19T13:52:39.538Z,16.17
2023-05-19T13:55:07.624Z,13.17
2023-05-19T13:57:34.437Z,16.73
2023-05-19T14:00:05.136Z,18.08
2023-05-19T14:02:37.894Z,15.57
2023-05-19T14:05:05.231Z,16.48
2023-05-19T14:07:34.735Z,17.97
2023-05-19T14:10:02.787Z,15.70
2023-05-19T14:12:37.846Z,15.18
2023-05-19T14:15:12.616Z,15.65
2023-05-19T14:17:43.898Z,14.63
2023-05-19T14:20:11.065Z,15.80
2023-05-19T14:22:41.103Z,14.02
2023-05-19T14:25:08.323Z,15.30
2023-05-19T14:27:35.073Z,17.52
2023-05-19T14:30:02.014Z,16.60
2023-05-19T14:32:30.431Z,18.20
2023-05-19T14:34:57.545Z,16.77
2023-05-19T14:37:26.616Z,17.05
2023-05-19T14:39:53.746Z,16.52
2023-05-19T14:42:20.529Z,17.67
2023-05-19T14:44:47.345Z,15.50
2023-05-19T14:47:14.279Z,17.25
2023-05-19T14:49:41.197Z,17.08
2023-05-19T14:52:10.584Z,16.90
2023-05-19T14:54:37.379Z,15.00
2023-05-19T14:57:08.238Z,17.93
2023-05-19T14:59:44.069Z,18.88
2023-05-19T15:02:12.092Z,18.33
2023-05-19T15:04:38.866Z,18.33
2023-05-19T15:07:10.353Z,17.88
2023-05-19T15:09:38.112Z,20.70
2023-05-19T15:12:05.154Z,26.60
2023-05-19T15:14:31.938Z,22.48
2023-05-19T15:16:59.243Z,19.83
2023-05-19T15:19:26.445Z,21.80
2023-05-19T15:21:53.620Z,24.73
2023-05-19T15:24:20.381Z,22.40
2023-05-19T15:26:49.688Z,19.48
2023-05-19T15:29:16.505Z,21.98
2023-05-19T15:31:44.696Z,24.08
2023-05-19T15:34:11.589Z,23.87
2023-05-19T15:36:38.406Z,24.25
2023-05-19T15:39:06.511Z,27.00
2023-05-19T15:41:35.845Z,23.38
2023-05-19T15:44:02.931Z,24.38
2023-05-19T15:46:30.256Z,22.37
2023-05-19T15:48:57.083Z,25.60
2023-05-19T15:51:24.150Z,26.63
2023-05-19T15:53:53.221Z,32.40
2023-05-19T15:56:20.148Z,31.35
2023-05-19T15:58:47.104Z,28.73
2023-05-19T16:01:15.187Z,30.25
2023-05-19T16:03:42.380Z,32.88
2023-05-19T16:06:12.304Z,32.70
2023-05-19T16:08:39.088Z,33.13
2023-05-19T16:11:06.100Z,36.00
2023-05-19T16:13:33.936Z,36.70
2023-05-19T16:16:01.116Z,36.38
2023-05-19T16:18:29.306Z,37.08
2023-05-19T16:20:56.564Z,38.55
2023-05-19T16:23:24.851Z,38.43
2023-05-19T16:25:51.726Z,35.35
2023-05-19T16:28:18.574Z,37.55
2023-05-19T16:30:46.059Z,34.08
2023-05-19T16:33:12.861Z,34.75
2023-05-19T16:35:39.799Z,36.33
2023-05-19T16:38:06.651Z,38.00
2023-05-19T16:40:33.701Z,35.90
2023-05-19T16:43:00.799Z,35.33
2023-05-19T16:45:27.591Z,37.55
2023-05-19T16:47:56.506Z,46.90
2023-05-19T16:50:23.358Z,37.67
2023-05-19T16:52:50.098Z,38.13
2023-05-19T16:55:20.039Z,34.38
2023-05-19T16:57:49.920Z,35.58
2023-05-19T17:00:19.276Z,35.07
2023-05-19T17:02:46.231Z,37.28
2023-05-19T17:05:13.093Z,35.30
2023-05-19T17:07:39.938Z,35.83
2023-05-19T17:10:07.145Z,39.05
2023-05-19T17:12:33.944Z,37.57
2023-05-19T17:15:00.705Z,35.72
2023-05-19T17:17:27.559Z,35.78
2023-05-19T17:19:54.437Z,41.83
2023-05-19T17:22:21.193Z,35.72
2023-05-19T17:24:48.037Z,36.97
2023-05-19T17:27:15.271Z,37.97
2023-05-19T17:29:42.088Z,44.13
2023-05-19T17:32:10.509Z,41.55
2023-05-19T17:34:37.402Z,37.88
2023-05-19T17:37:06.618Z,38.53
2023-05-19T17:39:33.415Z,39.72
2023-05-19T17:42:00.246Z,39.85
2023-05-19T17:44:27.177Z,42.20
2023-05-19T17:46:54.057Z,44.20
2023-05-19T17:49:23.083Z,47.20
2023-05-19T17:51:50.208Z,46.78
2023-05-19T17:54:17.498Z,42.40
2023-05-19T17:56:45.203Z,46.03
2023-05-19T17:59:12.328Z,45.42
2023-05-19T18:01:40.772Z,45.73
2023-05-19T18:04:13.112Z,41.72
2023-05-19T18:06:44.177Z,44.28
2023-05-19T18:09:11.254Z,44.80
2023-05-19T18:11:38.022Z,52.95
2023-05-19T18:14:04.888Z,48.70
2023-05-19T18:16:31.723Z,49.47
2023-05-19T18:18:58.504Z,46.63
2023-05-19T18:21:25.372Z,48.30
2023-05-19T18:23:52.183Z,50.53
2023-05-19T18:26:19.044Z,47.77
2023-05-19T18:28:45.937Z,48.42
2023-05-19T18:31:19.182Z,46.47
2023-05-19T18:33:47.271Z,41.80
2023-05-19T18:36:16.493Z,40.80
2023-05-19T18:38:43.428Z,40.70
2023-05-19T18:41:10.440Z,35.05
2023-05-19T18:43:37.303Z,38.70
2023-05-19T18:46:04.122Z,33.38
2023-05-19T18:48:32.126Z,33.40
2023-05-19T18:50:59.483Z,31.60
2023-05-19T18:53:26.730Z,32.90
2023-05-19T18:55:53.479Z,32.38
2023-05-19T18:58:22.196Z,30.38
2023-05-19T19:00:49.056Z,31.55
2023-05-19T19:03:18.310Z,29.83
2023-05-19T19:05:45.099Z,31.15
2023-05-19T19:08:12.064Z,33.90
2023-05-19T19:10:40.738Z,34.33
2023-05-19T19:13:07.665Z,32.63
2023-05-19T19:15:34.609Z,34.30
2023-05-19T19:18:01.473Z,37.58
2023-05-19T19:20:28.253Z,40.67
2023-05-19T19:22:55.115Z,39.63
2023-05-19T19:25:23.549Z,46.17
2023-05-19T19:27:50.810Z,44.00
2023-05-19T19:30:17.693Z,47.17
2023-05-19T19:32:44.586Z,44.30
2023-05-19T19:35:11.583Z,47.75
2023-05-19T19:37:38.396Z,49.85
2023-05-19T19:40:08.785Z,41.43
2023-05-19T19:42:35.599Z,50.33
2023-05-19T19:45:02.446Z,43.35
2023-05-19T19:47:32.743Z,49.30
2023-05-19T19:50:01.165Z,45.70
2023-05-19T19:52:27.958Z,43.60
2023-05-19T19:54:54.719Z,46.40
2023-05-19T19:57:21.473Z,46.63
2023-05-19T19:59:55.017Z,43.25
2023-05-19T20:02:22.171Z,42.70
2023-05-19T20:04:49.617Z,46.23
2023-05-19T20:07:19.681Z,45.45
2023-05-19T20:09:49.060Z,43.30
2023-05-19T20:12:15.930Z,44.22
2023-05-19T20:14:43.902Z,44.70
2023-05-19T20:17:10.668Z,45.80
2023-05-19T20:19:37.579Z,45.67
2023-05-19T20:22:04.558Z,43.90
2023-05-19T20:24:31.306Z,41.22
2023-05-19T20:26:58.118Z,43.40
2023-05-19T20:29:24.946Z,39.00
2023-05-19T20:31:51.700Z,44.05
2023-05-19T20:34:18.609Z,43.20
2023-05-19T20:36:48.613Z,45.60
2023-05-19T20:39:15.674Z,42.75
2023-05-19T20:41:45.535Z,42.33
2023-05-19T20:44:12.832Z,40.47
2023-05-19T20:46:39.567Z,41.40
2023-05-19T20:49:06.487Z,47.05
2023-05-19T20:51:33.264Z,44.85
2023-05-19T20:54:02.978Z,41.93
2023-05-19T20:56:29.716Z,43.72
2023-05-19T20:58:56.574Z,40.80
2023-05-19T21:01:25.389Z,41.55
2023-05-19T21:03:53.435Z,45.22
2023-05-19T21:06:20.199Z,38.03
2023-05-19T21:08:49.155Z,38.90
2023-05-19T21:11:16.179Z,39.72
2023-05-19T21:13:43.481Z,38.42
2023-05-19T21:16:10.606Z,35.03
2023-05-19T21:18:37.517Z,40.63
2023-05-19T21:21:04.507Z,42.38
2023-05-19T21:23:31.359Z,48.53
2023-05-19T21:25:59.693Z,46.55
2023-05-19T21:28:26.614Z,44.70
2023-05-19T21:30:56.900Z,45.80
2023-05-19T21:33:24.729Z,49.03
2023-05-19T21:35:51.456Z,47.45
2023-05-19T21:38:24.038Z,42.80
2023-05-19T21:40:52.151Z,41.67
2023-05-19T21:43:19.575Z,42.63
2023-05-19T21:45:46.406Z,42.20
2023-05-19T21:48:13.260Z,45.30
2023-05-19T21:50:40.126Z,49.15
2023-05-19T21:53:06.853Z,50.70
2023-05-19T21:55:33.714Z,50.40
2023-05-19T21:58:02.646Z,50.38
2023-05-19T22:00:33.031Z,45.50
2023-05-19T22:03:00.287Z,47.47
2023-05-19T22:05:29.664Z,48.53
2023-05-19T22:07:56.643Z,42.43
2023-05-19T22:10:23.488Z,44.03
2023-05-19T22:12:50.340Z,46.08
2023-05-19T22:15:17.136Z,51.15
2023-05-19T22:17:44.280Z,47.63
2023-05-19T22:20:11.936Z,51.17
2023-05-19T22:22:38.691Z,49.30
2023-05-19T22:25:06.168Z,52.08
2023-05-19T22:27:32.968Z,51.45
2023-05-19T22:29:59.898Z,52.50
2023-05-19T22:32:26.922Z,51.97
2023-05-19T22:34:53.810Z,51.65
2023-05-19T22:37:22.923Z,47.72
2023-05-19T22:39:49.698Z,44.83
2023-05-19T22:42:18.846Z,49.25
2023-05-19T22:44:46.140Z,49.92
2023-05-19T22:47:15.175Z,50.00
2023-05-19T22:49:42.897Z,47.45
2023-05-19T22:52:11.194Z,50.63
2023-05-19T22:54:38.469Z,46.88
2023-05-19T22:57:05.589Z,51.53
2023-05-19T22:59:32.388Z,48.92
2023-05-19T23:01:59.149Z,51.67
2023-05-19T23:04:26.158Z,52.67
2023-05-19T23:06:53.109Z,50.88
2023-05-19T23:09:19.959Z,48.37
2023-05-19T23:11:46.780Z,50.08
2023-05-19T23:14:13.523Z,51.55
2023-05-19T23:16:40.310Z,47.38
2023-05-19T23:19:07.431Z,53.15
2023-05-19T23:21:34.254Z,46.23
2023-05-19T23:24:01.119Z,51.25
2023-05-19T23:26:27.884Z,49.25
2023-05-19T23:28:54.726Z,49.97
2023-05-19T23:31:21.524Z,50.88
2023-05-19T23:33:48.272Z,42.97
2023-05-19T23:36:15.903Z,57.03
2023-05-19T23:38:42.698Z,51.78
2023-05-19T23:41:09.487Z,50.72
2023-05-19T23:43:36.321Z,53.08
2023-05-19T23:46:03.401Z,48.57
2023-05-19T23:48:31.350Z,53.78
2023-05-19T23:51:00.854Z,46.92
2023-05-19T23:53:27.626Z,45.70
2023-05-19T23:55:55.280Z,49.05
2023-05-19T23:58:23.541Z,46.30
